Laceys Spring, AL (35754)

12:19 AM CDT on April 18, 2015 (GMT -0500)
Union Hill | | Change Station
CLOSE
Current Station
Personal Weather Station
Location: Lacey's Spring, AL
Elevation: 1270 ft
Nearby Weather Stations

Elev 1270 ft 34.50 °N, 86.63 °W | Updated 14 seconds ago

Partly Cloudy
Partly Cloudy
60.3 °F
Feels Like 60.3 °F
N
0.0
Wind Variable Wind from East
Gusts 0.0 mph

Today
High -- | Low -- °F
--% Chance of Precip.
Yesterday
High -- | Low -- °F
Precip. -- in
6:11 AM 7:20 PM
Waning Crescent, 0% visible
Pressure 30.01 in
Visibility 0.5 miles
Clouds Clear
Dew Point 60 °F
Humidity 98%
Rainfall 0.00 in
Snow Depth Not available.
UV 16.0 out of 12
Pollen 8.80 out of 12
Air Quality Not available.
Flu Activity Sporadic
METAR KHUA 180458Z AUTO 09002KT 1/2SM FG CLR 16/15 A3001 RMK AO2 RAB08E17RAB19E28 SLP161 P0000 T01560152 RVRNO

More Conditions Fewer Conditions

Pressure 30.01 in
Visibility 0.5 miles
Clouds Clear
Dew Point 60 °F
Humidity 98%
Rainfall 0.00 in
Snow Depth Not available.
UV 16.0 out of 12
Pollen 8.80 out of 12
Air Quality Not available.
Flu Activity Sporadic
METAR KHUA 180458Z AUTO 09002KT 1/2SM FG CLR 16/15 A3001 RMK AO2 RAB08E17RAB19E28 SLP161 P0000 T01560152 RVRNO

More Conditions Fewer Conditions

10-Day Weather Forecast

Almanac

Astronomy

Apr. 18, 2015 Rise Set
Actual Time
Civil Twilight
Nautical Twilight
Astronomical Twilight
Moon
Length of Visible Light
Length of Day
Tomorrow will be .
, % of the Moon is Illuminated

Today's Extremes

State Highs State Lows

Community

WunderPhotos

Upload Photos

1,814,341 photos uploaded!

WunderBlogs® & News

Nearby

Air Quality

  Air Quality AQ Index Pollutant
Not available.

Snow Depth

Station Depth Elevation

Earthquake Activity

City Distance Mag. Time & Date
Minimum magnitude displayed is 2.5.

Coastal Water Temperatures

Place Temperature

Stations

Nearby Weather Stations

Station Location Temp. Windchill Dew Point Humidity Wind Precip. Elev Updated Type